sensor_id;sensor_type;location;lat;lon;timestamp;temperature;humidity
27224;DHT22;14965;50.660;13.226;2023-08-07T00:01:25;13.10;99.90
27224;DHT22;14965;50.660;13.226;2023-08-07T00:03:52;13.10;99.90
27224;DHT22;14965;50.660;13.226;2023-08-07T00:06:18;13.00;99.90
27224;DHT22;14965;50.660;13.226;2023-08-07T00:08:44;13.00;99.90
27224;DHT22;14965;50.660;13.226;2023-08-07T00:11:10;13.00;99.90
27224;DHT22;14965;50.660;13.226;2023-08-07T00:13:37;13.00;99.90
27224;DHT22;14965;50.660;13.226;2023-08-07T00:16:03;13.00;99.90
27224;DHT22;14965;50.660;13.226;2023-08-07T00:18:29;13.00;99.90
27224;DHT22;14965;50.660;13.226;2023-08-07T00:20:57;13.00;99.90
27224;DHT22;14965;50.660;13.226;2023-08-07T00:23:23;12.90;99.90
27224;DHT22;14965;50.660;13.226;2023-08-07T00:25:49;12.90;99.90
27224;DHT22;14965;50.660;13.226;2023-08-07T00:28:14;12.90;99.90
27224;DHT22;14965;50.660;13.226;2023-08-07T00:30:41;12.90;99.90
27224;DHT22;14965;50.660;13.226;2023-08-07T00:33:07;12.90;99.90
27224;DHT22;14965;50.660;13.226;2023-08-07T00:35:33;12.90;99.90
27224;DHT22;14965;50.660;13.226;2023-08-07T00:38:01;12.90;99.90
27224;DHT22;14965;50.660;13.226;2023-08-07T00:40:27;12.80;99.90
27224;DHT22;14965;50.660;13.226;2023-08-07T00:42:52;12.80;99.90
27224;DHT22;14965;50.660;13.226;2023-08-07T00:45:18;12.70;99.90
27224;DHT22;14965;50.660;13.226;2023-08-07T00:47:44;12.70;99.90
27224;DHT22;14965;50.660;13.226;2023-08-07T00:50:10;12.70;99.90
27224;DHT22;14965;50.660;13.226;2023-08-07T00:52:37;12.70;99.90
27224;DHT22;14965;50.660;13.226;2023-08-07T00:55:05;12.70;99.90
27224;DHT22;14965;50.660;13.226;2023-08-07T00:57:32;12.70;99.90
27224;DHT22;14965;50.660;13.226;2023-08-07T00:59:59;12.70;99.90
27224;DHT22;14965;50.660;13.226;2023-08-07T01:02:25;12.70;99.90
27224;DHT22;14965;50.660;13.226;2023-08-07T01:04:51;12.70;99.90
27224;DHT22;14965;50.660;13.226;2023-08-07T01:07:17;12.70;99.90
27224;DHT22;14965;50.660;13.226;2023-08-07T01:09:43;12.70;99.90
27224;DHT22;14965;50.660;13.226;2023-08-07T01:12:15;12.70;99.90
27224;DHT22;14965;50.660;13.226;2023-08-07T01:14:52;12.70;99.90
27224;DHT22;14965;50.660;13.226;2023-08-07T01:17:23;12.70;99.90
27224;DHT22;14965;50.660;13.226;2023-08-07T01:19:50;12.70;99.90
27224;DHT22;14965;50.660;13.226;2023-08-07T01:22:19;12.70;99.90
27224;DHT22;14965;50.660;13.226;2023-08-07T01:24:47;12.70;99.90
27224;DHT22;14965;50.660;13.226;2023-08-07T01:27:41;12.70;99.90
27224;DHT22;14965;50.660;13.226;2023-08-07T01:30:17;12.70;99.90
27224;DHT22;14965;50.660;13.226;2023-08-07T01:32:56;12.70;99.90
27224;DHT22;14965;50.660;13.226;2023-08-07T01:35:33;12.70;99.90
27224;DHT22;14965;50.660;13.226;2023-08-07T01:38:07;12.70;99.90
27224;DHT22;14965;50.660;13.226;2023-08-07T01:40:34;12.70;99.90
27224;DHT22;14965;50.660;13.226;2023-08-07T01:43:02;12.70;99.90
27224;DHT22;14965;50.660;13.226;2023-08-07T01:45:29;12.70;99.90
27224;DHT22;14965;50.660;13.226;2023-08-07T01:47:55;12.70;99.90
27224;DHT22;14965;50.660;13.226;2023-08-07T01:50:22;12.70;99.90
27224;DHT22;14965;50.660;13.226;2023-08-07T01:52:49;12.70;99.90
27224;DHT22;14965;50.660;13.226;2023-08-07T01:55:18;12.70;99.90
27224;DHT22;14965;50.660;13.226;2023-08-07T01:57:45;12.70;99.90
27224;DHT22;14965;50.660;13.226;2023-08-07T02:00:12;12.60;99.90
27224;DHT22;14965;50.660;13.226;2023-08-07T02:02:38;12.60;99.90
27224;DHT22;14965;50.660;13.226;2023-08-07T02:05:05;12.60;99.90
27224;DHT22;14965;50.660;13.226;2023-08-07T02:07:31;12.60;99.90
27224;DHT22;14965;50.660;13.226;2023-08-07T02:09:57;12.60;99.90
27224;DHT22;14965;50.660;13.226;2023-08-07T02:12:25;12.60;99.90
27224;DHT22;14965;50.660;13.226;2023-08-07T02:14:51;12.60;99.90
27224;DHT22;14965;50.660;13.226;2023-08-07T02:17:16;12.60;99.90
27224;DHT22;14965;50.660;13.226;2023-08-07T02:19:42;12.60;99.90
27224;DHT22;14965;50.660;13.226;2023-08-07T02:22:08;12.60;99.90
27224;DHT22;14965;50.660;13.226;2023-08-07T02:24:34;12.60;99.90
27224;DHT22;14965;50.660;13.226;2023-08-07T02:27:00;12.60;99.90
27224;DHT22;14965;50.660;13.226;2023-08-07T02:29:27;12.60;99.90
27224;DHT22;14965;50.660;13.226;2023-08-07T02:31:53;12.60;99.90
27224;DHT22;14965;50.660;13.226;2023-08-07T02:34:19;12.60;99.90
27224;DHT22;14965;50.660;13.226;2023-08-07T02:36:45;12.60;99.90
27224;DHT22;14965;50.660;13.226;2023-08-07T02:39:13;12.60;99.90
27224;DHT22;14965;50.660;13.226;2023-08-07T02:41:39;12.60;99.90
27224;DHT22;14965;50.660;13.226;2023-08-07T02:44:05;12.70;99.90
27224;DHT22;14965;50.660;13.226;2023-08-07T02:46:32;12.70;99.90
27224;DHT22;14965;50.660;13.226;2023-08-07T02:48:58;12.60;99.90
27224;DHT22;14965;50.660;13.226;2023-08-07T02:51:24;12.60;99.90
27224;DHT22;14965;50.660;13.226;2023-08-07T02:53:50;12.50;99.90
27224;DHT22;14965;50.660;13.226;2023-08-07T02:56:16;12.50;99.90
27224;DHT22;14965;50.660;13.226;2023-08-07T02:58:42;12.50;99.90
27224;DHT22;14965;50.660;13.226;2023-08-07T03:01:08;12.50;99.90
27224;DHT22;14965;50.660;13.226;2023-08-07T03:03:35;12.50;99.90
27224;DHT22;14965;50.660;13.226;2023-08-07T03:06:01;12.50;99.90
27224;DHT22;14965;50.660;13.226;2023-08-07T03:08:27;12.50;99.90
27224;DHT22;14965;50.660;13.226;2023-08-07T03:10:54;12.50;99.90
27224;DHT22;14965;50.660;13.226;2023-08-07T03:13:21;12.50;99.90
27224;DHT22;14965;50.660;13.226;2023-08-07T03:15:47;12.50;99.90
27224;DHT22;14965;50.660;13.226;2023-08-07T03:18:13;12.50;99.90
27224;DHT22;14965;50.660;13.226;2023-08-07T03:20:41;12.50;99.90
27224;DHT22;14965;50.660;13.226;2023-08-07T03:23:06;12.50;99.90
27224;DHT22;14965;50.660;13.226;2023-08-07T03:25:32;12.50;99.90
27224;DHT22;14965;50.660;13.226;2023-08-07T03:27:58;12.50;99.90
27224;DHT22;14965;50.660;13.226;2023-08-07T03:30:24;12.40;99.90
27224;DHT22;14965;50.660;13.226;2023-08-07T03:32:50;12.50;99.90
27224;DHT22;14965;50.660;13.226;2023-08-07T03:35:16;12.50;99.90
27224;DHT22;14965;50.660;13.226;2023-08-07T03:37:43;12.50;99.90
27224;DHT22;14965;50.660;13.226;2023-08-07T03:40:10;12.50;99.90
27224;DHT22;14965;50.660;13.226;2023-08-07T03:42:36;12.50;99.90
27224;DHT22;14965;50.660;13.226;2023-08-07T03:45:03;12.50;99.90
27224;DHT22;14965;50.660;13.226;2023-08-07T03:47:29;12.40;99.90
27224;DHT22;14965;50.660;13.226;2023-08-07T03:49:55;12.40;99.90
27224;DHT22;14965;50.660;13.226;2023-08-07T03:52:21;12.40;99.90
27224;DHT22;14965;50.660;13.226;2023-08-07T03:54:48;12.40;99.90
27224;DHT22;14965;50.660;13.226;2023-08-07T03:57:14;12.40;99.90
27224;DHT22;14965;50.660;13.226;2023-08-07T03:59:40;12.40;99.90
27224;DHT22;14965;50.660;13.226;2023-08-07T04:02:06;12.40;99.90
27224;DHT22;14965;50.660;13.226;2023-08-07T04:04:32;12.40;99.90
27224;DHT22;14965;50.660;13.226;2023-08-07T04:06:58;12.50;99.90
27224;DHT22;14965;50.660;13.226;2023-08-07T04:09:23;12.50;99.90
27224;DHT22;14965;50.660;13.226;2023-08-07T04:11:51;12.50;99.90
27224;DHT22;14965;50.660;13.226;2023-08-07T04:14:17;12.40;99.90
27224;DHT22;14965;50.660;13.226;2023-08-07T04:16:43;12.40;99.90
27224;DHT22;14965;50.660;13.226;2023-08-07T04:19:09;12.40;99.90
27224;DHT22;14965;50.660;13.226;2023-08-07T04:21:35;12.40;99.90
27224;DHT22;14965;50.660;13.226;2023-08-07T04:24:00;12.40;99.90
27224;DHT22;14965;50.660;13.226;2023-08-07T04:26:26;12.40;99.90
27224;DHT22;14965;50.660;13.226;2023-08-07T04:28:54;12.40;99.90
27224;DHT22;14965;50.660;13.226;2023-08-07T04:31:20;12.40;99.90
27224;DHT22;14965;50.660;13.226;2023-08-07T04:33:46;12.40;99.90
27224;DHT22;14965;50.660;13.226;2023-08-07T04:36:11;12.40;99.90
27224;DHT22;14965;50.660;13.226;2023-08-07T04:38:37;12.40;99.90
27224;DHT22;14965;50.660;13.226;2023-08-07T04:41:03;12.40;99.90
27224;DHT22;14965;50.660;13.226;2023-08-07T04:43:29;12.40;99.90
27224;DHT22;14965;50.660;13.226;2023-08-07T04:45:57;12.40;99.90
27224;DHT22;14965;50.660;13.226;2023-08-07T04:48:23;12.40;99.90
27224;DHT22;14965;50.660;13.226;2023-08-07T04:50:48;12.40;99.90
27224;DHT22;14965;50.660;13.226;2023-08-07T04:53:14;12.40;99.90
27224;DHT22;14965;50.660;13.226;2023-08-07T04:55:40;12.40;99.90
27224;DHT22;14965;50.660;13.226;2023-08-07T04:58:06;12.40;99.90
27224;DHT22;14965;50.660;13.226;2023-08-07T05:00:32;12.40;99.90
27224;DHT22;14965;50.660;13.226;2023-08-07T05:03:00;12.40;99.90
27224;DHT22;14965;50.660;13.226;2023-08-07T05:05:26;12.40;99.90
27224;DHT22;14965;50.660;13.226;2023-08-07T05:07:54;12.40;99.90
27224;DHT22;14965;50.660;13.226;2023-08-07T05:10:20;12.50;99.90
27224;DHT22;14965;50.660;13.226;2023-08-07T05:12:46;12.50;99.90
27224;DHT22;14965;50.660;13.226;2023-08-07T05:15:12;12.40;99.90
27224;DHT22;14965;50.660;13.226;2023-08-07T05:17:38;12.40;99.90
27224;DHT22;14965;50.660;13.226;2023-08-07T05:20:07;12.40;99.90
27224;DHT22;14965;50.660;13.226;2023-08-07T05:22:33;12.40;99.90
27224;DHT22;14965;50.660;13.226;2023-08-07T05:24:59;12.30;99.90
27224;DHT22;14965;50.660;13.226;2023-08-07T05:27:25;12.30;99.90
27224;DHT22;14965;50.660;13.226;2023-08-07T05:29:51;12.30;99.90
27224;DHT22;14965;50.660;13.226;2023-08-07T05:32:17;12.30;99.90
27224;DHT22;14965;50.660;13.226;2023-08-07T05:34:43;12.30;99.90
27224;DHT22;14965;50.660;13.226;2023-08-07T05:37:10;12.30;99.90
27224;DHT22;14965;50.660;13.226;2023-08-07T05:39:36;12.30;99.90
27224;DHT22;14965;50.660;13.226;2023-08-07T05:42:03;12.30;99.90
27224;DHT22;14965;50.660;13.226;2023-08-07T05:44:29;12.30;99.90
27224;DHT22;14965;50.660;13.226;2023-08-07T05:46:55;12.30;99.90
27224;DHT22;14965;50.660;13.226;2023-08-07T05:49:21;12.30;99.90
27224;DHT22;14965;50.660;13.226;2023-08-07T05:51:47;12.30;99.90
27224;DHT22;14965;50.660;13.226;2023-08-07T05:54:15;12.30;99.90
27224;DHT22;14965;50.660;13.226;2023-08-07T05:56:41;12.30;99.90
27224;DHT22;14965;50.660;13.226;2023-08-07T05:59:07;12.30;99.90
27224;DHT22;14965;50.660;13.226;2023-08-07T06:01:33;12.30;99.90
27224;DHT22;14965;50.660;13.226;2023-08-07T06:03:58;12.30;99.90
27224;DHT22;14965;50.660;13.226;2023-08-07T06:06:25;12.30;99.90
27224;DHT22;14965;50.660;13.226;2023-08-07T06:08:51;12.20;99.90
27224;DHT22;14965;50.660;13.226;2023-08-07T06:11:19;12.20;99.90
27224;DHT22;14965;50.660;13.226;2023-08-07T06:13:44;12.30;99.90
27224;DHT22;14965;50.660;13.226;2023-08-07T06:16:10;12.20;99.90
27224;DHT22;14965;50.660;13.226;2023-08-07T06:18:36;12.20;99.90
27224;DHT22;14965;50.660;13.226;2023-08-07T06:21:03;12.20;99.90
27224;DHT22;14965;50.660;13.226;2023-08-07T06:23:29;12.20;99.90
27224;DHT22;14965;50.660;13.226;2023-08-07T06:25:56;12.20;99.90
27224;DHT22;14965;50.660;13.226;2023-08-07T06:28:23;12.30;99.90
27224;DHT22;14965;50.660;13.226;2023-08-07T06:30:49;12.20;99.90
27224;DHT22;14965;50.660;13.226;2023-08-07T06:33:15;12.20;99.90
27224;DHT22;14965;50.660;13.226;2023-08-07T06:35:41;12.20;99.90
27224;DHT22;14965;50.660;13.226;2023-08-07T06:38:07;12.20;99.90
27224;DHT22;14965;50.660;13.226;2023-08-07T06:40:35;12.20;99.90
27224;DHT22;14965;50.660;13.226;2023-08-07T06:43:01;12.30;99.90
27224;DHT22;14965;50.660;13.226;2023-08-07T06:45:28;12.30;99.90
27224;DHT22;14965;50.660;13.226;2023-08-07T06:47:54;12.40;99.90
27224;DHT22;14965;50.660;13.226;2023-08-07T06:50:20;12.50;99.90
27224;DHT22;14965;50.660;13.226;2023-08-07T06:52:46;12.60;99.90
27224;DHT22;14965;50.660;13.226;2023-08-07T06:55:12;12.50;99.90
27224;DHT22;14965;50.660;13.226;2023-08-07T06:57:38;12.50;99.90
27224;DHT22;14965;50.660;13.226;2023-08-07T07:00:05;12.40;99.90
27224;DHT22;14965;50.660;13.226;2023-08-07T07:02:33;12.40;99.90
27224;DHT22;14965;50.660;13.226;2023-08-07T07:04:59;12.50;99.90
27224;DHT22;14965;50.660;13.226;2023-08-07T07:07:25;12.50;99.90
27224;DHT22;14965;50.660;13.226;2023-08-07T07:09:50;12.40;99.90
27224;DHT22;14965;50.660;13.226;2023-08-07T07:12:16;12.40;99.90
27224;DHT22;14965;50.660;13.226;2023-08-07T07:14:42;12.50;99.90
27224;DHT22;14965;50.660;13.226;2023-08-07T07:17:08;12.50;99.90
27224;DHT22;14965;50.660;13.226;2023-08-07T07:19:35;12.50;99.90
27224;DHT22;14965;50.660;13.226;2023-08-07T07:22:01;12.50;99.90
27224;DHT22;14965;50.660;13.226;2023-08-07T07:24:27;12.60;99.90
27224;DHT22;14965;50.660;13.226;2023-08-07T07:26:53;12.60;99.90
27224;DHT22;14965;50.660;13.226;2023-08-07T07:29:20;12.70;99.90
27224;DHT22;14965;50.660;13.226;2023-08-07T07:31:46;12.80;99.90
27224;DHT22;14965;50.660;13.226;2023-08-07T07:34:12;12.80;99.90
27224;DHT22;14965;50.660;13.226;2023-08-07T07:36:39;12.80;99.90
27224;DHT22;14965;50.660;13.226;2023-08-07T07:39:05;12.90;99.90
27224;DHT22;14965;50.660;13.226;2023-08-07T07:41:31;12.80;99.90
27224;DHT22;14965;50.660;13.226;2023-08-07T07:43:57;12.80;99.90
27224;DHT22;14965;50.660;13.226;2023-08-07T07:46:23;12.80;99.90
27224;DHT22;14965;50.660;13.226;2023-08-07T07:48:49;12.70;99.90
27224;DHT22;14965;50.660;13.226;2023-08-07T07:51:15;12.70;99.90
27224;DHT22;14965;50.660;13.226;2023-08-07T07:53:42;12.70;99.90
27224;DHT22;14965;50.660;13.226;2023-08-07T07:56:08;12.70;99.90
27224;DHT22;14965;50.660;13.226;2023-08-07T07:58:34;12.70;99.90
27224;DHT22;14965;50.660;13.226;2023-08-07T08:01:00;12.70;99.90
27224;DHT22;14965;50.660;13.226;2023-08-07T08:03:26;12.60;99.90
27224;DHT22;14965;50.660;13.226;2023-08-07T08:05:52;12.60;99.90
27224;DHT22;14965;50.660;13.226;2023-08-07T08:08:18;12.60;99.90
27224;DHT22;14965;50.660;13.226;2023-08-07T08:10:46;12.60;99.90
27224;DHT22;14965;50.660;13.226;2023-08-07T08:13:12;12.70;99.90
27224;DHT22;14965;50.660;13.226;2023-08-07T08:15:38;12.80;99.90
27224;DHT22;14965;50.660;13.226;2023-08-07T08:18:04;12.80;99.90
27224;DHT22;14965;50.660;13.226;2023-08-07T08:20:30;12.90;99.90
27224;DHT22;14965;50.660;13.226;2023-08-07T08:22:56;12.90;99.90
27224;DHT22;14965;50.660;13.226;2023-08-07T08:25:22;12.90;99.90
27224;DHT22;14965;50.660;13.226;2023-08-07T08:27:49;12.90;99.90
27224;DHT22;14965;50.660;13.226;2023-08-07T08:30:15;12.90;99.90
27224;DHT22;14965;50.660;13.226;2023-08-07T08:32:42;13.00;99.90
27224;DHT22;14965;50.660;13.226;2023-08-07T08:35:09;13.10;99.90
27224;DHT22;14965;50.660;13.226;2023-08-07T08:37:35;13.10;99.90
27224;DHT22;14965;50.660;13.226;2023-08-07T08:40:01;13.10;99.90
27224;DHT22;14965;50.660;13.226;2023-08-07T08:42:27;13.10;99.90
27224;DHT22;14965;50.660;13.226;2023-08-07T08:44:55;13.10;99.90
27224;DHT22;14965;50.660;13.226;2023-08-07T08:47:22;13.20;99.90
27224;DHT22;14965;50.660;13.226;2023-08-07T08:49:51;13.30;99.90
27224;DHT22;14965;50.660;13.226;2023-08-07T08:52:23;13.20;99.90
27224;DHT22;14965;50.660;13.226;2023-08-07T08:54:50;13.20;99.90
27224;DHT22;14965;50.660;13.226;2023-08-07T08:57:17;13.20;99.90
27224;DHT22;14965;50.660;13.226;2023-08-07T08:59:44;13.20;99.90
27224;DHT22;14965;50.660;13.226;2023-08-07T09:02:12;13.20;99.90
27224;DHT22;14965;50.660;13.226;2023-08-07T09:04:38;13.20;99.90
27224;DHT22;14965;50.660;13.226;2023-08-07T09:07:05;13.20;99.90
27224;DHT22;14965;50.660;13.226;2023-08-07T09:09:31;13.10;99.90
27224;DHT22;14965;50.660;13.226;2023-08-07T09:11:58;13.00;99.90
27224;DHT22;14965;50.660;13.226;2023-08-07T09:14:26;13.00;99.90
27224;DHT22;14965;50.660;13.226;2023-08-07T09:16:55;12.90;99.90
27224;DHT22;14965;50.660;13.226;2023-08-07T09:19:26;12.90;99.90
27224;DHT22;14965;50.660;13.226;2023-08-07T09:21:52;13.00;99.90
27224;DHT22;14965;50.660;13.226;2023-08-07T09:24:19;13.00;99.90
27224;DHT22;14965;50.660;13.226;2023-08-07T09:26:44;12.90;99.90
27224;DHT22;14965;50.660;13.226;2023-08-07T09:29:11;12.90;99.90
27224;DHT22;14965;50.660;13.226;2023-08-07T09:31:37;12.90;99.90
27224;DHT22;14965;50.660;13.226;2023-08-07T09:34:04;12.90;99.90
27224;DHT22;14965;50.660;13.226;2023-08-07T09:36:32;12.90;99.90
27224;DHT22;14965;50.660;13.226;2023-08-07T09:39:00;12.80;99.90
27224;DHT22;14965;50.660;13.226;2023-08-07T09:41:28;12.80;99.90
27224;DHT22;14965;50.660;13.226;2023-08-07T09:43:55;12.80;99.90
27224;DHT22;14965;50.660;13.226;2023-08-07T09:46:21;12.80;99.90
27224;DHT22;14965;50.660;13.226;2023-08-07T09:48:47;12.70;99.90
27224;DHT22;14965;50.660;13.226;2023-08-07T09:51:13;12.70;99.90
27224;DHT22;14965;50.660;13.226;2023-08-07T09:53:41;12.70;99.90
27224;DHT22;14965;50.660;13.226;2023-08-07T09:56:07;12.60;99.90
27224;DHT22;14965;50.660;13.226;2023-08-07T09:58:34;12.70;99.90
27224;DHT22;14965;50.660;13.226;2023-08-07T10:01:02;12.80;99.90
27224;DHT22;14965;50.660;13.226;2023-08-07T10:03:29;12.80;99.90
27224;DHT22;14965;50.660;13.226;2023-08-07T10:05:55;12.90;99.90
27224;DHT22;14965;50.660;13.226;2023-08-07T10:08:21;13.00;99.90
27224;DHT22;14965;50.660;13.226;2023-08-07T10:10:49;13.10;99.90
27224;DHT22;14965;50.660;13.226;2023-08-07T10:13:15;13.20;99.90
27224;DHT22;14965;50.660;13.226;2023-08-07T10:15:41;13.10;99.90
27224;DHT22;14965;50.660;13.226;2023-08-07T10:18:08;13.10;99.90
27224;DHT22;14965;50.660;13.226;2023-08-07T10:20:35;13.20;99.90
27224;DHT22;14965;50.660;13.226;2023-08-07T10:23:06;13.40;99.90
27224;DHT22;14965;50.660;13.226;2023-08-07T10:25:35;13.50;99.90
27224;DHT22;14965;50.660;13.226;2023-08-07T10:28:06;13.50;99.90
27224;DHT22;14965;50.660;13.226;2023-08-07T10:30:34;13.50;99.90
27224;DHT22;14965;50.660;13.226;2023-08-07T10:33:03;13.60;99.90
27224;DHT22;14965;50.660;13.226;2023-08-07T10:35:31;13.60;99.90
27224;DHT22;14965;50.660;13.226;2023-08-07T10:38:04;13.60;99.90
27224;DHT22;14965;50.660;13.226;2023-08-07T10:40:31;13.50;99.90
27224;DHT22;14965;50.660;13.226;2023-08-07T10:42:59;13.50;99.90
27224;DHT22;14965;50.660;13.226;2023-08-07T10:45:28;13.60;99.90
27224;DHT22;14965;50.660;13.226;2023-08-07T10:48:01;13.70;99.90
27224;DHT22;14965;50.660;13.226;2023-08-07T10:50:35;13.80;99.90
27224;DHT22;14965;50.660;13.226;2023-08-07T10:53:18;14.10;99.90
27224;DHT22;14965;50.660;13.226;2023-08-07T10:55:45;14.40;99.90
27224;DHT22;14965;50.660;13.226;2023-08-07T10:58:22;14.70;99.90
27224;DHT22;14965;50.660;13.226;2023-08-07T11:00:50;15.20;99.90
27224;DHT22;14965;50.660;13.226;2023-08-07T11:03:25;15.60;99.90
27224;DHT22;14965;50.660;13.226;2023-08-07T11:05:52;15.60;99.90
27224;DHT22;14965;50.660;13.226;2023-08-07T11:08:21;15.50;99.90
27224;DHT22;14965;50.660;13.226;2023-08-07T11:10:48;15.60;99.90
27224;DHT22;14965;50.660;13.226;2023-08-07T11:13:15;15.60;99.90
27224;DHT22;14965;50.660;13.226;2023-08-07T11:15:41;15.60;99.90
27224;DHT22;14965;50.660;13.226;2023-08-07T11:18:08;15.60;99.90
27224;DHT22;14965;50.660;13.226;2023-08-07T11:20:35;15.40;99.90
27224;DHT22;14965;50.660;13.226;2023-08-07T11:23:02;15.20;99.90
27224;DHT22;14965;50.660;13.226;2023-08-07T11:25:30;15.10;99.90
27224;DHT22;14965;50.660;13.226;2023-08-07T11:27:56;15.10;99.90
27224;DHT22;14965;50.660;13.226;2023-08-07T11:30:22;15.00;99.90
27224;DHT22;14965;50.660;13.226;2023-08-07T11:32:49;14.80;99.90
27224;DHT22;14965;50.660;13.226;2023-08-07T11:35:17;14.60;99.90
27224;DHT22;14965;50.660;13.226;2023-08-07T11:37:46;14.50;99.90
27224;DHT22;14965;50.660;13.226;2023-08-07T11:40:11;14.20;99.90
27224;DHT22;14965;50.660;13.226;2023-08-07T11:42:37;14.10;99.90
27224;DHT22;14965;50.660;13.226;2023-08-07T11:45:04;14.10;99.90
27224;DHT22;14965;50.660;13.226;2023-08-07T11:47:30;14.10;99.90
27224;DHT22;14965;50.660;13.226;2023-08-07T11:49:56;14.30;99.90
27224;DHT22;14965;50.660;13.226;2023-08-07T11:52:25;14.20;99.90
27224;DHT22;14965;50.660;13.226;2023-08-07T11:54:52;14.30;99.90
27224;DHT22;14965;50.660;13.226;2023-08-07T11:57:20;14.40;99.90
27224;DHT22;14965;50.660;13.226;2023-08-07T11:59:52;14.80;99.90
27224;DHT22;14965;50.660;13.226;2023-08-07T12:02:22;15.10;99.90
27224;DHT22;14965;50.660;13.226;2023-08-07T12:04:50;15.30;99.90
27224;DHT22;14965;50.660;13.226;2023-08-07T12:07:17;15.50;99.90
27224;DHT22;14965;50.660;13.226;2023-08-07T12:09:45;15.50;99.90
27224;DHT22;14965;50.660;13.226;2023-08-07T12:12:11;15.50;99.90
27224;DHT22;14965;50.660;13.226;2023-08-07T12:14:38;15.50;99.90
27224;DHT22;14965;50.660;13.226;2023-08-07T12:17:04;15.60;99.90
27224;DHT22;14965;50.660;13.226;2023-08-07T12:19:37;15.80;99.90
27224;DHT22;14965;50.660;13.226;2023-08-07T12:22:06;15.90;99.90
27224;DHT22;14965;50.660;13.226;2023-08-07T12:24:33;15.90;99.90
27224;DHT22;14965;50.660;13.226;2023-08-07T12:27:02;15.90;99.90
27224;DHT22;14965;50.660;13.226;2023-08-07T12:29:28;15.90;99.90
27224;DHT22;14965;50.660;13.226;2023-08-07T12:31:54;15.80;99.90
27224;DHT22;14965;50.660;13.226;2023-08-07T12:34:20;15.60;99.90
27224;DHT22;14965;50.660;13.226;2023-08-07T12:36:46;15.30;99.90
27224;DHT22;14965;50.660;13.226;2023-08-07T12:39:12;15.00;99.90
27224;DHT22;14965;50.660;13.226;2023-08-07T12:41:38;14.80;99.90
27224;DHT22;14965;50.660;13.226;2023-08-07T12:44:05;14.60;99.90
27224;DHT22;14965;50.660;13.226;2023-08-07T12:46:31;14.50;99.90
27224;DHT22;14965;50.660;13.226;2023-08-07T12:48:57;14.40;99.90
27224;DHT22;14965;50.660;13.226;2023-08-07T12:51:23;14.50;99.90
27224;DHT22;14965;50.660;13.226;2023-08-07T12:53:49;14.60;99.90
27224;DHT22;14965;50.660;13.226;2023-08-07T12:56:15;14.90;99.90
27224;DHT22;14965;50.660;13.226;2023-08-07T12:58:41;15.10;99.90
27224;DHT22;14965;50.660;13.226;2023-08-07T13:01:08;15.30;99.90
27224;DHT22;14965;50.660;13.226;2023-08-07T13:03:34;15.40;99.90
27224;DHT22;14965;50.660;13.226;2023-08-07T13:06:00;15.50;99.90
27224;DHT22;14965;50.660;13.226;2023-08-07T13:08:26;15.50;99.90
27224;DHT22;14965;50.660;13.226;2023-08-07T13:10:52;15.10;99.90
27224;DHT22;14965;50.660;13.226;2023-08-07T13:13:18;14.90;99.90
27224;DHT22;14965;50.660;13.226;2023-08-07T13:15:44;14.90;99.90
27224;DHT22;14965;50.660;13.226;2023-08-07T13:18:11;15.00;99.90
27224;DHT22;14965;50.660;13.226;2023-08-07T13:20:37;15.00;99.90
27224;DHT22;14965;50.660;13.226;2023-08-07T13:23:03;15.20;99.90
27224;DHT22;14965;50.660;13.226;2023-08-07T13:25:29;15.30;99.90
27224;DHT22;14965;50.660;13.226;2023-08-07T13:27:55;15.40;99.90
27224;DHT22;14965;50.660;13.226;2023-08-07T13:30:21;15.50;99.90
27224;DHT22;14965;50.660;13.226;2023-08-07T13:32:47;15.50;99.90
27224;DHT22;14965;50.660;13.226;2023-08-07T13:35:14;15.60;99.90
27224;DHT22;14965;50.660;13.226;2023-08-07T13:37:40;15.40;99.90
27224;DHT22;14965;50.660;13.226;2023-08-07T13:40:07;15.30;99.90
27224;DHT22;14965;50.660;13.226;2023-08-07T13:42:34;15.00;99.90
27224;DHT22;14965;50.660;13.226;2023-08-07T13:45:00;14.90;99.90
27224;DHT22;14965;50.660;13.226;2023-08-07T13:47:26;15.00;99.90
27224;DHT22;14965;50.660;13.226;2023-08-07T13:49:52;15.10;99.90
27224;DHT22;14965;50.660;13.226;2023-08-07T13:52:20;15.30;99.90
27224;DHT22;14965;50.660;13.226;2023-08-07T13:54:46;15.40;99.90
27224;DHT22;14965;50.660;13.226;2023-08-07T13:57:12;15.70;99.90
27224;DHT22;14965;50.660;13.226;2023-08-07T13:59:39;15.80;99.90
27224;DHT22;14965;50.660;13.226;2023-08-07T14:02:05;15.70;99.90
27224;DHT22;14965;50.660;13.226;2023-08-07T14:04:31;15.70;99.90
27224;DHT22;14965;50.660;13.226;2023-08-07T14:06:57;15.70;99.90
27224;DHT22;14965;50.660;13.226;2023-08-07T14:09:26;15.70;99.90
27224;DHT22;14965;50.660;13.226;2023-08-07T14:11:52;15.70;99.90
27224;DHT22;14965;50.660;13.226;2023-08-07T14:14:18;15.70;99.90
27224;DHT22;14965;50.660;13.226;2023-08-07T14:16:44;15.70;99.90
27224;DHT22;14965;50.660;13.226;2023-08-07T14:19:09;15.60;99.90
27224;DHT22;14965;50.660;13.226;2023-08-07T14:21:35;15.50;99.90
27224;DHT22;14965;50.660;13.226;2023-08-07T14:24:01;15.40;99.90
27224;DHT22;14965;50.660;13.226;2023-08-07T14:26:29;15.20;99.90
27224;DHT22;14965;50.660;13.226;2023-08-07T14:28:55;15.00;99.90
27224;DHT22;14965;50.660;13.226;2023-08-07T14:31:21;14.90;99.90
27224;DHT22;14965;50.660;13.226;2023-08-07T14:33:47;14.90;99.90
27224;DHT22;14965;50.660;13.226;2023-08-07T14:36:13;14.80;99.90
27224;DHT22;14965;50.660;13.226;2023-08-07T14:38:38;14.70;99.90
27224;DHT22;14965;50.660;13.226;2023-08-07T14:41:04;14.50;99.90
27224;DHT22;14965;50.660;13.226;2023-08-07T14:43:32;14.30;99.90
27224;DHT22;14965;50.660;13.226;2023-08-07T14:45:58;14.20;99.90
27224;DHT22;14965;50.660;13.226;2023-08-07T14:48:24;14.20;99.90
27224;DHT22;14965;50.660;13.226;2023-08-07T14:50:50;14.20;99.90
27224;DHT22;14965;50.660;13.226;2023-08-07T14:53:16;14.30;99.90
27224;DHT22;14965;50.660;13.226;2023-08-07T14:55:43;14.40;99.90
27224;DHT22;14965;50.660;13.226;2023-08-07T14:58:09;14.40;99.90
27224;DHT22;14965;50.660;13.226;2023-08-07T15:00:37;14.30;99.90
27224;DHT22;14965;50.660;13.226;2023-08-07T15:03:03;14.20;99.90
27224;DHT22;14965;50.660;13.226;2023-08-07T15:05:29;14.10;99.90
27224;DHT22;14965;50.660;13.226;2023-08-07T15:07:55;14.00;99.90
27224;DHT22;14965;50.660;13.226;2023-08-07T15:10:21;14.10;99.90
27224;DHT22;14965;50.660;13.226;2023-08-07T15:12:47;14.00;99.90